createdAt,value
2022-10-11T00:10:43.343Z,8.32
2022-10-11T00:30:49.016Z,8.56
2022-10-11T00:50:55.186Z,8.44
2022-10-11T01:11:01.407Z,9.27
2022-10-11T01:31:07.157Z,9.06
2022-10-11T01:51:12.867Z,8.85
2022-10-11T02:11:19.039Z,9.48
2022-10-11T02:31:24.778Z,10.00
2022-10-11T02:51:30.941Z,9.59
2022-10-11T03:11:37.142Z,10.09
2022-10-11T03:31:42.883Z,9.84
2022-10-11T03:51:49.021Z,8.68
2022-10-11T04:11:54.777Z,8.60
2022-10-11T04:32:00.573Z,8.20
2022-10-11T04:52:06.289Z,7.80
2022-10-11T05:12:12.060Z,7.17
2022-10-11T05:32:18.259Z,7.54
2022-10-11T05:52:23.983Z,8.08
2022-10-11T06:12:29.689Z,8.51
2022-10-11T06:32:35.860Z,8.82
2022-10-11T06:52:41.556Z,13.11
2022-10-11T07:12:47.233Z,9.90
2022-10-11T07:32:53.522Z,9.74
2022-10-11T07:52:59.653Z,9.30
2022-10-11T08:13:05.415Z,9.51
2022-10-11T08:33:11.087Z,11.60
2022-10-11T08:53:16.813Z,13.44
2022-10-11T09:13:22.578Z,12.98
2022-10-11T09:33:28.301Z,12.50
2022-10-11T09:53:34.005Z,12.10
2022-10-11T10:13:39.755Z,10.59
2022-10-11T10:33:45.465Z,9.61
2022-10-11T10:53:51.692Z,9.16
2022-10-11T11:13:57.374Z,8.81
2022-10-11T11:34:03.652Z,7.79
2022-10-11T11:54:09.322Z,7.07
2022-10-11T12:14:15.079Z,7.04
2022-10-11T12:34:20.930Z,6.99
2022-10-11T12:54:29.108Z,6.74
2022-10-11T13:14:31.860Z,6.45
2022-10-11T13:34:37.915Z,7.67
2022-10-11T13:54:43.654Z,6.24
2022-10-11T14:14:49.321Z,6.35
2022-10-11T14:34:55.408Z,6.44
2022-10-11T14:55:01.808Z,6.23
2022-10-11T15:15:07.541Z,6.29
2022-10-11T15:35:13.763Z,6.35
2022-10-11T15:55:19.517Z,6.57
2022-10-11T16:15:25.243Z,8.07
2022-10-11T16:35:32.640Z,8.15
2022-10-11T16:55:36.765Z,8.50
2022-10-11T17:15:42.407Z,8.19
2022-10-11T17:35:48.066Z,8.63
2022-10-11T17:55:53.817Z,8.48
2022-10-11T18:15:59.989Z,9.62
2022-10-11T18:36:05.708Z,12.26
2022-10-11T18:56:11.495Z,14.05
2022-10-11T19:16:17.819Z,14.00
2022-10-11T19:36:24.271Z,16.50
2022-10-11T19:56:30.438Z,15.85
2022-10-11T20:16:36.128Z,17.72
2022-10-11T20:36:44.654Z,18.21
2022-10-11T20:56:47.052Z,17.95
2022-10-11T21:16:52.774Z,17.85
2022-10-11T21:36:58.484Z,17.31
2022-10-11T21:57:04.230Z,17.24
2022-10-11T22:17:09.963Z,16.79
2022-10-11T22:37:15.700Z,16.67
2022-10-11T22:57:21.414Z,17.21
2022-10-11T23:17:27.093Z,16.68
2022-10-11T23:37:33.265Z,17.11
2022-10-11T23:57:39.544Z,16.93
